sensor_id;sensor_type;location;lat;lon;timestamp;P1;durP1;ratioP1;P2;durP2;ratioP2
7515;SDS011;3799;47.184;8.538;2023-04-03T00:01:16;1.02;;;0.20;;
7515;SDS011;3799;47.184;8.538;2023-04-03T00:03:45;1.23;;;0.17;;
7515;SDS011;3799;47.184;8.538;2023-04-03T00:06:13;0.45;;;0.00;;
7515;SDS011;3799;47.184;8.538;2023-04-03T00:08:40;1.00;;;0.10;;
7515;SDS011;3799;47.184;8.538;2023-04-03T00:11:08;0.70;;;0.20;;
7515;SDS011;3799;47.184;8.538;2023-04-03T00:13:45;0.98;;;0.25;;
7515;SDS011;3799;47.184;8.538;2023-04-03T00:16:12;0.65;;;0.20;;
7515;SDS011;3799;47.184;8.538;2023-04-03T00:18:40;0.98;;;0.20;;
7515;SDS011;3799;47.184;8.538;2023-04-03T00:21:08;1.58;;;0.52;;
7515;SDS011;3799;47.184;8.538;2023-04-03T00:23:41;1.40;;;0.57;;
7515;SDS011;3799;47.184;8.538;2023-04-03T00:26:09;0.85;;;0.30;;
7515;SDS011;3799;47.184;8.538;2023-04-03T00:28:36;1.90;;;0.80;;
7515;SDS011;3799;47.184;8.538;2023-04-03T00:31:04;2.00;;;0.90;;
7515;SDS011;3799;47.184;8.538;2023-04-03T00:33:31;1.73;;;0.70;;
7515;SDS011;3799;47.184;8.538;2023-04-03T00:36:12;2.22;;;1.00;;
7515;SDS011;3799;47.184;8.538;2023-04-03T00:38:40;2.30;;;0.95;;
7515;SDS011;3799;47.184;8.538;2023-04-03T00:41:07;2.10;;;0.88;;
7515;SDS011;3799;47.184;8.538;2023-04-03T00:43:34;3.25;;;1.17;;
7515;SDS011;3799;47.184;8.538;2023-04-03T00:46:02;4.60;;;1.50;;
7515;SDS011;3799;47.184;8.538;2023-04-03T00:48:43;3.10;;;1.60;;
7515;SDS011;3799;47.184;8.538;2023-04-03T00:51:22;5.00;;;2.65;;
7515;SDS011;3799;47.184;8.538;2023-04-03T00:54:09;4.40;;;2.47;;
7515;SDS011;3799;47.184;8.538;2023-04-03T00:56:37;4.80;;;2.72;;
7515;SDS011;3799;47.184;8.538;2023-04-03T00:59:06;4.82;;;2.70;;
7515;SDS011;3799;47.184;8.538;2023-04-03T01:01:38;9.40;;;2.70;;
7515;SDS011;3799;47.184;8.538;2023-04-03T01:04:06;3.00;;;1.70;;
7515;SDS011;3799;47.184;8.538;2023-04-03T01:07:14;3.75;;;1.73;;
7515;SDS011;3799;47.184;8.538;2023-04-03T01:09:44;2.97;;;1.50;;
7515;SDS011;3799;47.184;8.538;2023-04-03T01:12:23;3.17;;;1.60;;
7515;SDS011;3799;47.184;8.538;2023-04-03T01:14:59;2.30;;;0.90;;
7515;SDS011;3799;47.184;8.538;2023-04-03T01:22:30;1.50;;;0.70;;
7515;SDS011;3799;47.184;8.538;2023-04-03T01:25:21;2.33;;;1.20;;
7515;SDS011;3799;47.184;8.538;2023-04-03T01:27:48;3.05;;;0.90;;
7515;SDS011;3799;47.184;8.538;2023-04-03T01:30:16;1.70;;;0.47;;
7515;SDS011;3799;47.184;8.538;2023-04-03T01:32:45;1.30;;;0.40;;
7515;SDS011;3799;47.184;8.538;2023-04-03T01:35:16;2.45;;;0.95;;
7515;SDS011;3799;47.184;8.538;2023-04-03T01:37:43;1.85;;;0.80;;
7515;SDS011;3799;47.184;8.538;2023-04-03T01:40:11;2.10;;;0.93;;
7515;SDS011;3799;47.184;8.538;2023-04-03T01:42:38;1.65;;;0.55;;
7515;SDS011;3799;47.184;8.538;2023-04-03T01:45:06;2.42;;;1.05;;
7515;SDS011;3799;47.184;8.538;2023-04-03T01:47:34;2.40;;;0.88;;
7515;SDS011;3799;47.184;8.538;2023-04-03T01:50:02;2.38;;;0.95;;
7515;SDS011;3799;47.184;8.538;2023-04-03T01:52:30;2.05;;;0.85;;
7515;SDS011;3799;47.184;8.538;2023-04-03T01:54:57;2.30;;;1.05;;
7515;SDS011;3799;47.184;8.538;2023-04-03T01:57:25;2.17;;;0.93;;
7515;SDS011;3799;47.184;8.538;2023-04-03T01:59:52;2.30;;;1.13;;
7515;SDS011;3799;47.184;8.538;2023-04-03T02:02:20;3.20;;;1.50;;
7515;SDS011;3799;47.184;8.538;2023-04-03T02:04:51;2.70;;;1.38;;
7515;SDS011;3799;47.184;8.538;2023-04-03T02:07:18;3.78;;;1.77;;
7515;SDS011;3799;47.184;8.538;2023-04-03T02:09:48;2.55;;;1.20;;
7515;SDS011;3799;47.184;8.538;2023-04-03T02:12:18;3.60;;;1.55;;
7515;SDS011;3799;47.184;8.538;2023-04-03T02:14:46;2.95;;;1.15;;
7515;SDS011;3799;47.184;8.538;2023-04-03T02:17:13;4.50;;;1.38;;
7515;SDS011;3799;47.184;8.538;2023-04-03T02:19:41;2.80;;;1.00;;
7515;SDS011;3799;47.184;8.538;2023-04-03T02:22:08;2.47;;;1.05;;
7515;SDS011;3799;47.184;8.538;2023-04-03T02:24:36;2.45;;;1.20;;
7515;SDS011;3799;47.184;8.538;2023-04-03T02:27:05;2.08;;;0.80;;
7515;SDS011;3799;47.184;8.538;2023-04-03T02:29:35;2.35;;;1.30;;
7515;SDS011;3799;47.184;8.538;2023-04-03T02:32:02;3.65;;;1.40;;
7515;SDS011;3799;47.184;8.538;2023-04-03T02:34:30;3.72;;;0.90;;
7515;SDS011;3799;47.184;8.538;2023-04-03T02:36:58;3.47;;;1.23;;
7515;SDS011;3799;47.184;8.538;2023-04-03T02:39:25;2.72;;;1.40;;
7515;SDS011;3799;47.184;8.538;2023-04-03T02:41:53;2.80;;;1.05;;
7515;SDS011;3799;47.184;8.538;2023-04-03T02:44:20;2.65;;;1.30;;
7515;SDS011;3799;47.184;8.538;2023-04-03T02:46:47;3.25;;;1.23;;
7515;SDS011;3799;47.184;8.538;2023-04-03T02:49:14;3.38;;;1.13;;
7515;SDS011;3799;47.184;8.538;2023-04-03T02:51:42;2.33;;;1.10;;
7515;SDS011;3799;47.184;8.538;2023-04-03T02:54:09;2.60;;;1.10;;
7515;SDS011;3799;47.184;8.538;2023-04-03T02:56:36;3.75;;;1.15;;
7515;SDS011;3799;47.184;8.538;2023-04-03T02:59:04;2.78;;;1.30;;
7515;SDS011;3799;47.184;8.538;2023-04-03T03:01:31;2.72;;;1.30;;
7515;SDS011;3799;47.184;8.538;2023-04-03T03:03:59;2.20;;;1.20;;
7515;SDS011;3799;47.184;8.538;2023-04-03T03:06:30;2.67;;;1.30;;
7515;SDS011;3799;47.184;8.538;2023-04-03T03:08:57;4.68;;;1.88;;
7515;SDS011;3799;47.184;8.538;2023-04-03T03:11:25;3.28;;;1.60;;
7515;SDS011;3799;47.184;8.538;2023-04-03T03:13:52;3.30;;;1.67;;
7515;SDS011;3799;47.184;8.538;2023-04-03T03:16:20;2.95;;;1.40;;
7515;SDS011;3799;47.184;8.538;2023-04-03T03:18:47;2.50;;;1.45;;
7515;SDS011;3799;47.184;8.538;2023-04-03T03:21:15;3.35;;;1.58;;
7515;SDS011;3799;47.184;8.538;2023-04-03T03:23:42;3.20;;;1.75;;
7515;SDS011;3799;47.184;8.538;2023-04-03T03:26:10;3.40;;;1.75;;
7515;SDS011;3799;47.184;8.538;2023-04-03T03:28:41;3.13;;;1.55;;
7515;SDS011;3799;47.184;8.538;2023-04-03T03:31:09;3.97;;;2.22;;
7515;SDS011;3799;47.184;8.538;2023-04-03T03:33:38;3.75;;;1.80;;
7515;SDS011;3799;47.184;8.538;2023-04-03T03:36:07;2.95;;;1.70;;
7515;SDS011;3799;47.184;8.538;2023-04-03T03:38:44;4.10;;;2.20;;
7515;SDS011;3799;47.184;8.538;2023-04-03T03:41:11;4.05;;;1.85;;
7515;SDS011;3799;47.184;8.538;2023-04-03T03:43:38;4.85;;;2.38;;
7515;SDS011;3799;47.184;8.538;2023-04-03T03:46:05;4.78;;;2.35;;
7515;SDS011;3799;47.184;8.538;2023-04-03T03:48:33;4.10;;;2.00;;
7515;SDS011;3799;47.184;8.538;2023-04-03T03:51:00;3.90;;;2.33;;
7515;SDS011;3799;47.184;8.538;2023-04-03T03:53:27;3.90;;;1.90;;
7515;SDS011;3799;47.184;8.538;2023-04-03T03:55:55;4.55;;;2.50;;
7515;SDS011;3799;47.184;8.538;2023-04-03T03:58:22;3.38;;;1.80;;
7515;SDS011;3799;47.184;8.538;2023-04-03T04:00:50;3.63;;;2.00;;
7515;SDS011;3799;47.184;8.538;2023-04-03T04:03:18;4.35;;;2.53;;
7515;SDS011;3799;47.184;8.538;2023-04-03T04:05:46;7.50;;;2.13;;
7515;SDS011;3799;47.184;8.538;2023-04-03T04:08:15;4.13;;;2.15;;
7515;SDS011;3799;47.184;8.538;2023-04-03T04:10:46;2.88;;;1.55;;
7515;SDS011;3799;47.184;8.538;2023-04-03T04:13:13;3.90;;;2.10;;
7515;SDS011;3799;47.184;8.538;2023-04-03T04:15:41;3.63;;;2.10;;
7515;SDS011;3799;47.184;8.538;2023-04-03T04:18:12;4.15;;;2.05;;
7515;SDS011;3799;47.184;8.538;2023-04-03T04:20:40;3.30;;;1.95;;
7515;SDS011;3799;47.184;8.538;2023-04-03T04:23:07;4.13;;;1.88;;
7515;SDS011;3799;47.184;8.538;2023-04-03T04:25:34;4.38;;;2.15;;
7515;SDS011;3799;47.184;8.538;2023-04-03T04:28:02;3.13;;;1.85;;
7515;SDS011;3799;47.184;8.538;2023-04-03T04:30:30;4.53;;;1.98;;
7515;SDS011;3799;47.184;8.538;2023-04-03T04:32:57;4.20;;;2.20;;
7515;SDS011;3799;47.184;8.538;2023-04-03T04:35:24;4.53;;;1.90;;
7515;SDS011;3799;47.184;8.538;2023-04-03T04:37:52;3.40;;;1.90;;
7515;SDS011;3799;47.184;8.538;2023-04-03T04:40:19;4.20;;;1.92;;
7515;SDS011;3799;47.184;8.538;2023-04-03T04:42:47;3.60;;;1.80;;
7515;SDS011;3799;47.184;8.538;2023-04-03T04:45:14;5.55;;;2.17;;
7515;SDS011;3799;47.184;8.538;2023-04-03T04:47:42;4.65;;;2.35;;
7515;SDS011;3799;47.184;8.538;2023-04-03T04:50:10;4.55;;;2.70;;
7515;SDS011;3799;47.184;8.538;2023-04-03T04:52:38;4.00;;;2.35;;
7515;SDS011;3799;47.184;8.538;2023-04-03T04:55:06;3.42;;;2.10;;
7515;SDS011;3799;47.184;8.538;2023-04-03T04:57:34;3.90;;;2.30;;
7515;SDS011;3799;47.184;8.538;2023-04-03T05:00:02;3.83;;;2.08;;
7515;SDS011;3799;47.184;8.538;2023-04-03T05:02:33;4.13;;;2.30;;
7515;SDS011;3799;47.184;8.538;2023-04-03T05:05:01;4.45;;;2.60;;
7515;SDS011;3799;47.184;8.538;2023-04-03T05:07:30;6.05;;;2.28;;
7515;SDS011;3799;47.184;8.538;2023-04-03T05:09:58;4.65;;;2.20;;
7515;SDS011;3799;47.184;8.538;2023-04-03T05:12:25;4.47;;;2.42;;
7515;SDS011;3799;47.184;8.538;2023-04-03T05:14:52;4.30;;;2.60;;
7515;SDS011;3799;47.184;8.538;2023-04-03T05:17:20;3.53;;;2.33;;
7515;SDS011;3799;47.184;8.538;2023-04-03T05:19:48;4.47;;;2.33;;
7515;SDS011;3799;47.184;8.538;2023-04-03T05:22:15;3.10;;;1.77;;
7515;SDS011;3799;47.184;8.538;2023-04-03T05:24:43;3.53;;;1.65;;
7515;SDS011;3799;47.184;8.538;2023-04-03T05:27:10;3.97;;;2.42;;
7515;SDS011;3799;47.184;8.538;2023-04-03T05:29:38;5.20;;;2.30;;
7515;SDS011;3799;47.184;8.538;2023-04-03T05:32:06;4.07;;;1.88;;
7515;SDS011;3799;47.184;8.538;2023-04-03T05:34:33;4.97;;;2.28;;
7515;SDS011;3799;47.184;8.538;2023-04-03T05:37:01;6.18;;;2.15;;
7515;SDS011;3799;47.184;8.538;2023-04-03T05:39:30;3.92;;;2.20;;
7515;SDS011;3799;47.184;8.538;2023-04-03T05:41:58;5.05;;;2.70;;
7515;SDS011;3799;47.184;8.538;2023-04-03T05:44:25;5.20;;;3.10;;
7515;SDS011;3799;47.184;8.538;2023-04-03T05:46:53;4.20;;;2.55;;
7515;SDS011;3799;47.184;8.538;2023-04-03T05:49:20;3.50;;;2.10;;
7515;SDS011;3799;47.184;8.538;2023-04-03T05:51:47;6.40;;;2.95;;
7515;SDS011;3799;47.184;8.538;2023-04-03T05:54:19;4.82;;;2.63;;
7515;SDS011;3799;47.184;8.538;2023-04-03T05:56:50;5.75;;;2.88;;
7515;SDS011;3799;47.184;8.538;2023-04-03T05:59:18;4.68;;;2.40;;
7515;SDS011;3799;47.184;8.538;2023-04-03T06:01:48;4.75;;;2.53;;
7515;SDS011;3799;47.184;8.538;2023-04-03T06:04:16;5.25;;;3.22;;
7515;SDS011;3799;47.184;8.538;2023-04-03T06:09:12;5.10;;;2.65;;
7515;SDS011;3799;47.184;8.538;2023-04-03T06:11:39;4.65;;;2.58;;
7515;SDS011;3799;47.184;8.538;2023-04-03T06:14:08;7.28;;;2.83;;
7515;SDS011;3799;47.184;8.538;2023-04-03T06:16:36;6.07;;;2.85;;
7515;SDS011;3799;47.184;8.538;2023-04-03T06:19:06;7.70;;;3.13;;
7515;SDS011;3799;47.184;8.538;2023-04-03T06:21:37;5.93;;;3.22;;
7515;SDS011;3799;47.184;8.538;2023-04-03T06:24:05;6.55;;;3.00;;
7515;SDS011;3799;47.184;8.538;2023-04-03T06:26:33;4.78;;;2.33;;
7515;SDS011;3799;47.184;8.538;2023-04-03T06:29:01;6.60;;;3.13;;
7515;SDS011;3799;47.184;8.538;2023-04-03T06:31:29;5.57;;;2.88;;
7515;SDS011;3799;47.184;8.538;2023-04-03T06:33:57;5.55;;;3.00;;
7515;SDS011;3799;47.184;8.538;2023-04-03T06:36:25;5.05;;;2.85;;
7515;SDS011;3799;47.184;8.538;2023-04-03T06:38:52;4.97;;;3.00;;
7515;SDS011;3799;47.184;8.538;2023-04-03T06:41:19;5.18;;;2.90;;
7515;SDS011;3799;47.184;8.538;2023-04-03T06:43:47;6.15;;;3.20;;
7515;SDS011;3799;47.184;8.538;2023-04-03T06:46:17;5.00;;;3.00;;
7515;SDS011;3799;47.184;8.538;2023-04-03T06:48:46;4.45;;;2.83;;
7515;SDS011;3799;47.184;8.538;2023-04-03T06:51:20;5.65;;;3.03;;
7515;SDS011;3799;47.184;8.538;2023-04-03T06:53:53;4.93;;;2.80;;
7515;SDS011;3799;47.184;8.538;2023-04-03T06:56:22;5.38;;;3.10;;
7515;SDS011;3799;47.184;8.538;2023-04-03T06:58:51;5.60;;;2.90;;
7515;SDS011;3799;47.184;8.538;2023-04-03T07:01:21;6.03;;;3.20;;
7515;SDS011;3799;47.184;8.538;2023-04-03T07:03:50;6.55;;;3.03;;
7515;SDS011;3799;47.184;8.538;2023-04-03T07:06:18;5.57;;;3.00;;
7515;SDS011;3799;47.184;8.538;2023-04-03T07:08:49;6.28;;;3.00;;
7515;SDS011;3799;47.184;8.538;2023-04-03T07:11:17;4.78;;;2.70;;
7515;SDS011;3799;47.184;8.538;2023-04-03T07:13:44;5.40;;;2.53;;
7515;SDS011;3799;47.184;8.538;2023-04-03T07:16:12;5.72;;;2.97;;
7515;SDS011;3799;47.184;8.538;2023-04-03T07:18:42;4.32;;;2.42;;
7515;SDS011;3799;47.184;8.538;2023-04-03T07:21:09;4.20;;;2.63;;
7515;SDS011;3799;47.184;8.538;2023-04-03T07:23:39;4.95;;;3.00;;
7515;SDS011;3799;47.184;8.538;2023-04-03T07:26:09;5.53;;;2.58;;
7515;SDS011;3799;47.184;8.538;2023-04-03T07:28:37;5.78;;;3.08;;
7515;SDS011;3799;47.184;8.538;2023-04-03T07:31:07;8.27;;;2.42;;
7515;SDS011;3799;47.184;8.538;2023-04-03T07:33:38;4.18;;;2.08;;
7515;SDS011;3799;47.184;8.538;2023-04-03T07:36:07;6.30;;;3.15;;
7515;SDS011;3799;47.184;8.538;2023-04-03T07:38:35;5.95;;;3.15;;
7515;SDS011;3799;47.184;8.538;2023-04-03T07:41:04;3.88;;;2.22;;
7515;SDS011;3799;47.184;8.538;2023-04-03T07:43:32;5.22;;;2.70;;
7515;SDS011;3799;47.184;8.538;2023-04-03T07:46:02;4.68;;;2.67;;
7515;SDS011;3799;47.184;8.538;2023-04-03T07:51:02;5.65;;;2.50;;
7515;SDS011;3799;47.184;8.538;2023-04-03T07:53:31;4.82;;;2.72;;
7515;SDS011;3799;47.184;8.538;2023-04-03T07:55:59;4.85;;;2.90;;
7515;SDS011;3799;47.184;8.538;2023-04-03T07:58:27;3.60;;;2.20;;
7515;SDS011;3799;47.184;8.538;2023-04-03T08:00:54;5.32;;;2.90;;
7515;SDS011;3799;47.184;8.538;2023-04-03T08:03:31;3.40;;;1.90;;
7515;SDS011;3799;47.184;8.538;2023-04-03T08:06:03;6.45;;;2.35;;
7515;SDS011;3799;47.184;8.538;2023-04-03T08:08:37;4.72;;;2.22;;
7515;SDS011;3799;47.184;8.538;2023-04-03T08:11:04;5.25;;;2.83;;
7515;SDS011;3799;47.184;8.538;2023-04-03T08:13:32;6.38;;;2.63;;
7515;SDS011;3799;47.184;8.538;2023-04-03T08:16:16;4.30;;;2.47;;
7515;SDS011;3799;47.184;8.538;2023-04-03T08:18:47;4.20;;;2.35;;
7515;SDS011;3799;47.184;8.538;2023-04-03T08:21:15;5.18;;;2.80;;
7515;SDS011;3799;47.184;8.538;2023-04-03T08:23:55;5.25;;;2.60;;
7515;SDS011;3799;47.184;8.538;2023-04-03T08:26:23;4.55;;;2.42;;
7515;SDS011;3799;47.184;8.538;2023-04-03T08:28:50;5.18;;;2.85;;
7515;SDS011;3799;47.184;8.538;2023-04-03T08:31:18;4.25;;;2.63;;
7515;SDS011;3799;47.184;8.538;2023-04-03T08:33:47;6.10;;;2.85;;
7515;SDS011;3799;47.184;8.538;2023-04-03T08:36:17;4.13;;;2.65;;
7515;SDS011;3799;47.184;8.538;2023-04-03T08:38:50;5.70;;;2.65;;
7515;SDS011;3799;47.184;8.538;2023-04-03T08:49:53;6.93;;;2.72;;
7515;SDS011;3799;47.184;8.538;2023-04-03T08:55:05;4.57;;;2.38;;
7515;SDS011;3799;47.184;8.538;2023-04-03T08:57:41;6.07;;;2.95;;
7515;SDS011;3799;47.184;8.538;2023-04-03T09:00:18;4.30;;;2.55;;
7515;SDS011;3799;47.184;8.538;2023-04-03T09:02:53;4.43;;;2.35;;
7515;SDS011;3799;47.184;8.538;2023-04-03T09:10:46;3.70;;;2.00;;
7515;SDS011;3799;47.184;8.538;2023-04-03T09:13:24;4.55;;;2.20;;
7515;SDS011;3799;47.184;8.538;2023-04-03T09:16:31;3.90;;;2.17;;
7515;SDS011;3799;47.184;8.538;2023-04-03T09:22:11;5.72;;;2.60;;
7515;SDS011;3799;47.184;8.538;2023-04-03T09:24:50;4.25;;;2.00;;
7515;SDS011;3799;47.184;8.538;2023-04-03T09:27:30;4.18;;;2.30;;
7515;SDS011;3799;47.184;8.538;2023-04-03T09:29:58;4.75;;;2.60;;
7515;SDS011;3799;47.184;8.538;2023-04-03T09:32:32;5.15;;;2.28;;
7515;SDS011;3799;47.184;8.538;2023-04-03T09:35:24;5.35;;;2.35;;
7515;SDS011;3799;47.184;8.538;2023-04-03T09:40:41;3.67;;;2.08;;
7515;SDS011;3799;47.184;8.538;2023-04-03T09:45:47;5.40;;;3.17;;
7515;SDS011;3799;47.184;8.538;2023-04-03T09:48:18;3.63;;;2.15;;
7515;SDS011;3799;47.184;8.538;2023-04-03T09:53:30;4.53;;;2.72;;
7515;SDS011;3799;47.184;8.538;2023-04-03T09:56:18;7.15;;;2.60;;
7515;SDS011;3799;47.184;8.538;2023-04-03T09:58:49;3.85;;;2.03;;
7515;SDS011;3799;47.184;8.538;2023-04-03T10:01:57;4.13;;;2.22;;
7515;SDS011;3799;47.184;8.538;2023-04-03T10:04:50;5.00;;;2.53;;
7515;SDS011;3799;47.184;8.538;2023-04-03T10:07:35;4.07;;;2.10;;
7515;SDS011;3799;47.184;8.538;2023-04-03T10:10:20;3.95;;;2.08;;
7515;SDS011;3799;47.184;8.538;2023-04-03T10:13:07;4.50;;;2.28;;
7515;SDS011;3799;47.184;8.538;2023-04-03T10:15:48;4.28;;;2.30;;
7515;SDS011;3799;47.184;8.538;2023-04-03T10:21:15;3.83;;;2.20;;
7515;SDS011;3799;47.184;8.538;2023-04-03T10:36:46;3.60;;;2.30;;
7515;SDS011;3799;47.184;8.538;2023-04-03T10:47:20;3.83;;;1.70;;
7515;SDS011;3799;47.184;8.538;2023-04-03T10:52:43;4.45;;;2.40;;
7515;SDS011;3799;47.184;8.538;2023-04-03T10:55:29;4.95;;;1.95;;
7515;SDS011;3799;47.184;8.538;2023-04-03T10:58:18;3.40;;;2.00;;
7515;SDS011;3799;47.184;8.538;2023-04-03T11:00:53;5.10;;;2.60;;
7515;SDS011;3799;47.184;8.538;2023-04-03T11:03:41;3.83;;;2.10;;
7515;SDS011;3799;47.184;8.538;2023-04-03T11:06:13;5.43;;;2.10;;
7515;SDS011;3799;47.184;8.538;2023-04-03T11:08:45;4.15;;;2.00;;
7515;SDS011;3799;47.184;8.538;2023-04-03T11:11:34;5.45;;;2.20;;
7515;SDS011;3799;47.184;8.538;2023-04-03T11:17:04;3.42;;;1.77;;
7515;SDS011;3799;47.184;8.538;2023-04-03T11:19:41;4.90;;;2.20;;
7515;SDS011;3799;47.184;8.538;2023-04-03T11:22:29;2.80;;;1.48;;
7515;SDS011;3799;47.184;8.538;2023-04-03T11:25:06;4.38;;;2.13;;
7515;SDS011;3799;47.184;8.538;2023-04-03T11:28:04;4.15;;;1.90;;
7515;SDS011;3799;47.184;8.538;2023-04-03T11:30:44;3.97;;;2.22;;
7515;SDS011;3799;47.184;8.538;2023-04-03T11:36:47;4.20;;;2.40;;
7515;SDS011;3799;47.184;8.538;2023-04-03T11:42:15;4.05;;;2.08;;
7515;SDS011;3799;47.184;8.538;2023-04-03T11:45:14;3.80;;;1.95;;
7515;SDS011;3799;47.184;8.538;2023-04-03T11:47:50;4.93;;;2.33;;
7515;SDS011;3799;47.184;8.538;2023-04-03T11:52:59;3.97;;;2.00;;
7515;SDS011;3799;47.184;8.538;2023-04-03T12:16:26;3.95;;;2.08;;
7515;SDS011;3799;47.184;8.538;2023-04-03T12:22:10;4.15;;;1.85;;
7515;SDS011;3799;47.184;8.538;2023-04-03T12:24:45;2.80;;;1.80;;
7515;SDS011;3799;47.184;8.538;2023-04-03T12:30:21;4.03;;;2.28;;
7515;SDS011;3799;47.184;8.538;2023-04-03T12:35:55;5.10;;;2.20;;
7515;SDS011;3799;47.184;8.538;2023-04-03T12:46:59;2.67;;;1.58;;
7515;SDS011;3799;47.184;8.538;2023-04-03T12:51:56;5.10;;;1.88;;
7515;SDS011;3799;47.184;8.538;2023-04-03T12:54:36;3.72;;;1.92;;
7515;SDS011;3799;47.184;8.538;2023-04-03T12:59:39;3.78;;;1.65;;
7515;SDS011;3799;47.184;8.538;2023-04-03T13:02:30;4.57;;;2.03;;
7515;SDS011;3799;47.184;8.538;2023-04-03T13:04:58;4.35;;;1.85;;
7515;SDS011;3799;47.184;8.538;2023-04-03T13:07:33;5.00;;;1.70;;
7515;SDS011;3799;47.184;8.538;2023-04-03T13:15:45;3.10;;;1.75;;
7515;SDS011;3799;47.184;8.538;2023-04-03T13:20:57;3.58;;;1.65;;
7515;SDS011;3799;47.184;8.538;2023-04-03T13:23:41;3.53;;;1.58;;
7515;SDS011;3799;47.184;8.538;2023-04-03T13:26:15;3.58;;;1.60;;
7515;SDS011;3799;47.184;8.538;2023-04-03T13:28:44;3.67;;;1.88;;
7515;SDS011;3799;47.184;8.538;2023-04-03T13:36:57;3.22;;;1.70;;
7515;SDS011;3799;47.184;8.538;2023-04-03T13:39:29;4.53;;;1.77;;
7515;SDS011;3799;47.184;8.538;2023-04-03T13:41:59;4.15;;;2.13;;
7515;SDS011;3799;47.184;8.538;2023-04-03T13:44:35;3.55;;;2.03;;
7515;SDS011;3799;47.184;8.538;2023-04-03T13:50:13;3.20;;;1.70;;
7515;SDS011;3799;47.184;8.538;2023-04-03T13:52:43;2.78;;;1.58;;
7515;SDS011;3799;47.184;8.538;2023-04-03T13:55:23;4.43;;;2.10;;
7515;SDS011;3799;47.184;8.538;2023-04-03T14:03:16;3.05;;;1.63;;
7515;SDS011;3799;47.184;8.538;2023-04-03T14:05:48;3.53;;;1.88;;
7515;SDS011;3799;47.184;8.538;2023-04-03T14:08:16;3.92;;;2.00;;
7515;SDS011;3799;47.184;8.538;2023-04-03T14:10:49;7.07;;;1.67;;
7515;SDS011;3799;47.184;8.538;2023-04-03T14:13:19;6.10;;;2.17;;
7515;SDS011;3799;47.184;8.538;2023-04-03T14:15:48;3.60;;;1.90;;
7515;SDS011;3799;47.184;8.538;2023-04-03T14:18:19;3.78;;;1.92;;
7515;SDS011;3799;47.184;8.538;2023-04-03T14:20:47;3.80;;;1.70;;
7515;SDS011;3799;47.184;8.538;2023-04-03T14:23:15;4.00;;;1.70;;
7515;SDS011;3799;47.184;8.538;2023-04-03T14:25:42;3.35;;;2.08;;
7515;SDS011;3799;47.184;8.538;2023-04-03T14:28:20;5.65;;;2.65;;
7515;SDS011;3799;47.184;8.538;2023-04-03T14:30:49;3.60;;;2.10;;
7515;SDS011;3799;47.184;8.538;2023-04-03T14:33:19;4.13;;;2.20;;
7515;SDS011;3799;47.184;8.538;2023-04-03T14:35:48;3.90;;;2.20;;
7515;SDS011;3799;47.184;8.538;2023-04-03T14:38:29;4.47;;;1.83;;
7515;SDS011;3799;47.184;8.538;2023-04-03T14:40:58;3.33;;;2.03;;
7515;SDS011;3799;47.184;8.538;2023-04-03T14:43:44;3.25;;;2.13;;
7515;SDS011;3799;47.184;8.538;2023-04-03T14:46:13;3.47;;;2.00;;
7515;SDS011;3799;47.184;8.538;2023-04-03T14:48:45;5.13;;;2.08;;
7515;SDS011;3799;47.184;8.538;2023-04-03T14:51:13;3.20;;;1.80;;
7515;SDS011;3799;47.184;8.538;2023-04-03T14:53:41;3.67;;;1.77;;
7515;SDS011;3799;47.184;8.538;2023-04-03T14:56:33;4.07;;;1.92;;
7515;SDS011;3799;47.184;8.538;2023-04-03T14:58:59;3.20;;;1.80;;
7515;SDS011;3799;47.184;8.538;2023-04-03T15:01:29;5.13;;;2.20;;
7515;SDS011;3799;47.184;8.538;2023-04-03T15:03:57;4.22;;;1.92;;
7515;SDS011;3799;47.184;8.538;2023-04-03T15:06:25;3.78;;;2.40;;
7515;SDS011;3799;47.184;8.538;2023-04-03T15:08:53;4.63;;;2.03;;
7515;SDS011;3799;47.184;8.538;2023-04-03T15:11:23;4.35;;;2.13;;
7515;SDS011;3799;47.184;8.538;2023-04-03T15:13:51;4.03;;;1.80;;
7515;SDS011;3799;47.184;8.538;2023-04-03T15:16:18;4.45;;;2.00;;
7515;SDS011;3799;47.184;8.538;2023-04-03T15:18:47;4.70;;;2.17;;
7515;SDS011;3799;47.184;8.538;2023-04-03T15:21:14;4.38;;;1.92;;
7515;SDS011;3799;47.184;8.538;2023-04-03T15:23:42;3.03;;;1.58;;
7515;SDS011;3799;47.184;8.538;2023-04-03T15:26:12;3.67;;;1.50;;
7515;SDS011;3799;47.184;8.538;2023-04-03T15:28:41;3.75;;;2.17;;
7515;SDS011;3799;47.184;8.538;2023-04-03T15:31:10;3.50;;;1.45;;
7515;SDS011;3799;47.184;8.538;2023-04-03T15:33:38;3.40;;;2.00;;
7515;SDS011;3799;47.184;8.538;2023-04-03T15:36:06;4.65;;;1.92;;
7515;SDS011;3799;47.184;8.538;2023-04-03T15:38:54;4.80;;;1.77;;
7515;SDS011;3799;47.184;8.538;2023-04-03T15:41:21;3.55;;;2.00;;
7515;SDS011;3799;47.184;8.538;2023-04-03T15:43:49;4.20;;;1.80;;
7515;SDS011;3799;47.184;8.538;2023-04-03T15:46:16;2.60;;;1.60;;
7515;SDS011;3799;47.184;8.538;2023-04-03T15:48:44;2.75;;;1.52;;
7515;SDS011;3799;47.184;8.538;2023-04-03T15:51:11;3.58;;;1.90;;
7515;SDS011;3799;47.184;8.538;2023-04-03T15:53:39;4.20;;;1.75;;
7515;SDS011;3799;47.184;8.538;2023-04-03T15:56:06;3.88;;;1.98;;
7515;SDS011;3799;47.184;8.538;2023-04-03T15:58:36;3.80;;;1.65;;
7515;SDS011;3799;47.184;8.538;2023-04-03T16:01:06;5.30;;;2.03;;
7515;SDS011;3799;47.184;8.538;2023-04-03T16:03:43;3.50;;;1.58;;
7515;SDS011;3799;47.184;8.538;2023-04-03T16:06:16;3.65;;;1.65;;
7515;SDS011;3799;47.184;8.538;2023-04-03T16:08:46;4.93;;;1.65;;
7515;SDS011;3799;47.184;8.538;2023-04-03T16:11:16;2.97;;;1.58;;
7515;SDS011;3799;47.184;8.538;2023-04-03T16:13:43;5.22;;;2.10;;
7515;SDS011;3799;47.184;8.538;2023-04-03T16:16:11;4.35;;;1.65;;
7515;SDS011;3799;47.184;8.538;2023-04-03T16:18:39;3.25;;;1.42;;
7515;SDS011;3799;47.184;8.538;2023-04-03T16:21:07;3.15;;;1.67;;
7515;SDS011;3799;47.184;8.538;2023-04-03T16:23:35;2.97;;;1.80;;
7515;SDS011;3799;47.184;8.538;2023-04-03T16:26:02;3.65;;;2.05;;
7515;SDS011;3799;47.184;8.538;2023-04-03T16:28:30;2.97;;;1.77;;
7515;SDS011;3799;47.184;8.538;2023-04-03T16:30:57;3.08;;;1.55;;
7515;SDS011;3799;47.184;8.538;2023-04-03T16:33:26;4.20;;;1.40;;
7515;SDS011;3799;47.184;8.538;2023-04-03T16:35:53;3.83;;;1.88;;
7515;SDS011;3799;47.184;8.538;2023-04-03T16:38:24;3.72;;;2.70;;
7515;SDS011;3799;47.184;8.538;2023-04-03T16:40:52;4.05;;;1.55;;
7515;SDS011;3799;47.184;8.538;2023-04-03T16:43:23;4.70;;;1.58;;
7515;SDS011;3799;47.184;8.538;2023-04-03T16:45:50;3.15;;;1.48;;
7515;SDS011;3799;47.184;8.538;2023-04-03T16:48:26;3.30;;;1.60;;
7515;SDS011;3799;47.184;8.538;2023-04-03T16:50:54;3.25;;;2.03;;
7515;SDS011;3799;47.184;8.538;2023-04-03T16:53:22;3.20;;;1.73;;
7515;SDS011;3799;47.184;8.538;2023-04-03T16:55:50;7.97;;;1.98;;
7515;SDS011;3799;47.184;8.538;2023-04-03T16:58:18;3.95;;;1.90;;
7515;SDS011;3799;47.184;8.538;2023-04-03T17:00:49;6.95;;;1.80;;
7515;SDS011;3799;47.184;8.538;2023-04-03T17:03:17;3.15;;;1.80;;
7515;SDS011;3799;47.184;8.538;2023-04-03T17:05:47;2.80;;;1.58;;
7515;SDS011;3799;47.184;8.538;2023-04-03T17:08:16;4.47;;;2.03;;
7515;SDS011;3799;47.184;8.538;2023-04-03T17:10:44;3.42;;;1.58;;
7515;SDS011;3799;47.184;8.538;2023-04-03T17:13:11;3.65;;;1.60;;
7515;SDS011;3799;47.184;8.538;2023-04-03T17:15:39;3.42;;;1.60;;
7515;SDS011;3799;47.184;8.538;2023-04-03T17:18:07;3.70;;;2.25;;
7515;SDS011;3799;47.184;8.538;2023-04-03T17:20:36;4.18;;;2.33;;
7515;SDS011;3799;47.184;8.538;2023-04-03T17:23:05;3.95;;;1.77;;
7515;SDS011;3799;47.184;8.538;2023-04-03T17:25:32;4.88;;;2.10;;
7515;SDS011;3799;47.184;8.538;2023-04-03T17:28:00;3.58;;;2.10;;
7515;SDS011;3799;47.184;8.538;2023-04-03T17:30:27;4.30;;;2.20;;
7515;SDS011;3799;47.184;8.538;2023-04-03T17:32:57;4.65;;;2.17;;
7515;SDS011;3799;47.184;8.538;2023-04-03T17:35:26;5.03;;;1.70;;
7515;SDS011;3799;47.184;8.538;2023-04-03T17:37:53;4.35;;;1.90;;
7515;SDS011;3799;47.184;8.538;2023-04-03T17:40:21;2.90;;;1.58;;
7515;SDS011;3799;47.184;8.538;2023-04-03T17:42:49;3.55;;;1.98;;
7515;SDS011;3799;47.184;8.538;2023-04-03T17:45:16;4.25;;;1.55;;
7515;SDS011;3799;47.184;8.538;2023-04-03T17:47:44;3.22;;;1.73;;
7515;SDS011;3799;47.184;8.538;2023-04-03T17:50:12;3.15;;;1.45;;
7515;SDS011;3799;47.184;8.538;2023-04-03T17:52:42;3.08;;;1.65;;
7515;SDS011;3799;47.184;8.538;2023-04-03T17:55:09;2.83;;;1.70;;
7515;SDS011;3799;47.184;8.538;2023-04-03T17:57:39;4.63;;;1.77;;
7515;SDS011;3799;47.184;8.538;2023-04-03T18:00:07;4.15;;;1.98;;